Time;durP1;ratioP1;P1;durP2;ratioP2;P2;SDS_P1;SDS_P2;PMS_P1;PMS_P2;Temp;Humidity;BMP_temperature;BMP_pressure;BME280_temperature;BME280_humidity;BME280_pressure;Samples;Min_cycle;Max_cycle;Signal;HPM_P1;HPM_P2
2022/12/19 00:01:16;;;;;;;12.43;11.73;;;20.40;41.80;;;;;;4994973;28;20829;-62
2022/12/19 00:03:44;;;;;;;12.77;11.97;;;20.40;41.80;;;;;;4995219;28;20542;-62
2022/12/19 00:06:11;;;;;;;13.70;12.90;;;20.30;41.70;;;;;;4995192;28;20453;-62
2022/12/19 00:08:38;;;;;;;12.30;11.70;;;20.30;41.70;;;;;;4995194;28;20450;-60
2022/12/19 00:11:05;;;;;;;12.40;11.80;;;20.30;41.80;;;;;;4994545;28;20487;-60
2022/12/19 00:13:32;;;;;;;12.50;11.70;;;20.30;41.80;;;;;;4995079;28;20467;-60
2022/12/19 00:16:05;;;;;;;11.77;11.07;;;20.20;41.80;;;;;;4995031;28;20545;-61
2022/12/19 00:18:32;;;;;;;11.77;11.20;;;20.20;41.90;;;;;;4994857;28;20442;-61
2022/12/19 00:21:01;;;;;;;11.70;11.10;;;20.20;41.90;;;;;;4994439;28;20478;-60
2022/12/19 00:23:30;;;;;;;12.40;11.67;;;20.10;41.90;;;;;;4994914;28;20453;-62
2022/12/19 00:26:07;;;;;;;12.40;11.80;;;20.10;42.00;;;;;;4995062;28;20457;-61
2022/12/19 00:28:34;;;;;;;12.23;11.53;;;20.10;42.00;;;;;;4994189;28;20453;-62
2022/12/19 00:31:03;;;;;;;12.87;12.10;;;20.10;42.10;;;;;;4994692;28;20483;-63
2022/12/19 00:33:30;;;;;;;11.80;11.10;;;20.10;42.20;;;;;;4994595;28;20453;-61
2022/12/19 00:35:58;;;;;;;11.13;10.53;;;20.10;42.20;;;;;;4994735;28;20811;-62
2022/12/19 00:38:25;;;;;;;11.80;11.20;;;20.00;42.20;;;;;;4994476;28;20841;-60
2022/12/19 00:40:52;;;;;;;11.10;10.50;;;20.00;42.20;;;;;;4994631;28;20547;-63
2022/12/19 00:43:19;;;;;;;11.73;11.03;;;20.00;42.20;;;;;;4994511;28;20438;-63
2022/12/19 00:45:45;;;;;;;10.50;9.90;;;19.90;42.20;;;;;;4994804;28;20449;-62
2022/12/19 00:48:16;;;;;;;11.87;11.17;;;19.90;42.80;;;;;;4994327;28;20447;-62
2022/12/19 00:50:43;;;;;;;11.03;10.43;;;19.90;42.30;;;;;;4993583;28;20489;-61
2022/12/19 00:53:09;;;;;;;10.57;9.97;;;19.90;42.30;;;;;;4994311;28;20930;-61
2022/12/19 00:55:38;;;;;;;10.70;10.10;;;19.90;42.30;;;;;;4994579;28;20451;-59
2022/12/19 00:58:05;;;;;;;12.20;11.40;;;19.90;42.30;;;;;;4994301;28;20834;-60
2022/12/19 01:00:32;;;;;;;10.97;10.37;;;19.90;42.30;;;;;;4993626;28;20550;-60
2022/12/19 01:02:58;;;;;;;10.57;9.97;;;19.80;42.30;;;;;;4994179;28;20435;-61
2022/12/19 01:05:27;;;;;;;11.77;11.07;;;19.80;42.30;;;;;;4994100;28;20545;-63
2022/12/19 01:07:53;;;;;;;10.93;10.33;;;19.80;42.30;;;;;;4994053;28;20449;-63
2022/12/19 01:10:20;;;;;;;11.20;10.57;;;19.80;42.30;;;;;;4993534;28;20962;-63
2022/12/19 01:12:46;;;;;;;11.70;11.00;;;19.70;42.30;;;;;;4993838;28;20569;-63
2022/12/19 01:15:14;;;;;;;10.47;9.80;;;19.70;42.30;;;;;;4993983;28;20558;-63
2022/12/19 01:17:41;;;;;;;11.23;10.53;;;19.70;42.30;;;;;;4993577;28;20200;-63
2022/12/19 01:20:09;;;;;;;10.70;10.20;;;19.70;42.40;;;;;;4993631;28;20581;-63
2022/12/19 01:22:38;;;;;;;12.03;11.50;;;19.70;42.40;;;;;;4993944;28;20443;-63
2022/12/19 01:25:05;;;;;;;10.90;10.30;;;19.70;42.40;;;;;;4993888;28;20478;-62
2022/12/19 01:27:32;;;;;;;12.10;11.37;;;19.70;42.90;;;;;;4993466;28;20888;-63
2022/12/19 01:29:59;;;;;;;10.90;10.33;;;19.70;42.50;;;;;;4993620;28;20833;-61
2022/12/19 01:32:26;;;;;;;11.67;10.87;;;19.60;42.30;;;;;;4993613;28;20573;-61
2022/12/19 01:34:53;;;;;;;11.60;10.90;;;19.60;42.40;;;;;;4993537;28;20479;-63
2022/12/19 01:37:20;;;;;;;10.73;10.13;;;19.60;42.40;;;;;;4993660;28;20447;-62
2022/12/19 01:39:48;;;;;;;10.93;10.33;;;19.60;42.40;;;;;;4992344;28;20976;-62
2022/12/19 01:42:21;;;;;;;10.33;9.73;;;19.60;42.40;;;;;;4993132;28;20449;-62
2022/12/19 01:45:36;;;;;;;12.03;11.33;;;19.60;42.40;;;;;;4993609;28;20447;-60
2022/12/19 01:48:17;;;;;;;10.60;10.00;;;19.60;42.50;;;;;;4989944;28;20447;-62
2022/12/19 01:50:51;;;;;;;10.70;10.20;;;19.60;42.50;;;;;;5039923;23;20494;-61
2022/12/19 01:53:19;;;;;;;11.33;10.73;;;19.50;42.50;;;;;;5020689;28;20477;-63
2022/12/19 01:55:48;;;;;;;10.33;9.83;;;19.50;42.50;;;;;;5012860;28;20446;-62
2022/12/19 01:58:15;;;;;;;10.83;10.23;;;19.50;42.50;;;;;;5012743;28;20450;-61
2022/12/19 02:00:44;;;;;;;10.10;9.60;;;19.50;42.50;;;;;;5007961;28;20467;-62
2022/12/19 02:03:16;;;;;;;11.30;10.70;;;19.50;42.50;;;;;;4992892;28;20809;-61
2022/12/19 02:05:44;;;;;;;11.13;10.43;;;19.50;43.10;;;;;;4993055;28;20454;-61
2022/12/19 02:08:11;;;;;;;10.30;9.80;;;19.50;42.50;;;;;;4993077;28;20446;-62
2022/12/19 02:10:38;;;;;;;11.60;11.00;;;19.50;42.50;;;;;;4992506;28;20473;-62
2022/12/19 02:13:07;;;;;;;10.60;10.10;;;19.50;42.50;;;;;;4992716;28;20994;-62
2022/12/19 02:15:41;;;;;;;10.73;10.13;;;19.50;42.50;;;;;;4992908;28;20937;-63
2022/12/19 02:18:17;;;;;;;11.00;10.40;;;19.40;42.40;;;;;;4992663;28;20446;-63
2022/12/19 02:21:13;;;;;;;11.37;10.77;;;19.40;42.50;;;;;;4991922;28;20467;-62
2022/12/19 02:24:09;;;;;;;11.67;10.97;;;19.40;42.50;;;;;;4992723;28;20911;-61
2022/12/19 02:26:57;;;;;;;11.97;11.27;;;19.40;42.50;;;;;;4992611;28;20447;-61
2022/12/19 02:29:59;;;;;;;9.80;9.30;;;19.40;42.50;;;;;;4992511;28;20461;-62
2022/12/19 02:32:32;;;;;;;10.03;9.53;;;19.40;42.50;;;;;;4992539;28;20838;-62
2022/12/19 02:35:07;;;;;;;10.50;9.90;;;19.40;42.50;;;;;;4992652;28;20818;-61
2022/12/19 02:37:37;;;;;;;11.33;10.73;;;19.40;42.60;;;;;;4992540;28;20449;-60
2022/12/19 02:40:10;;;;;;;10.50;10.00;;;19.40;42.60;;;;;;4992152;28;20457;-62
2022/12/19 02:42:41;;;;;;;10.90;10.37;;;19.30;42.60;;;;;;4992468;28;20442;-61
2022/12/19 02:45:11;;;;;;;11.27;10.67;;;19.30;42.60;;;;;;4992369;28;20455;-62
2022/12/19 02:47:40;;;;;;;10.93;10.40;;;19.30;42.60;;;;;;4992271;28;20446;-61
2022/12/19 02:50:08;;;;;;;10.30;9.70;;;19.30;42.60;;;;;;4972941;28;20448;-62
2022/12/19 02:52:48;;;;;;;10.33;9.73;;;19.30;42.70;;;;;;4972614;28;20490;-62
2022/12/19 02:55:21;;;;;;;10.40;9.90;;;19.30;42.60;;;;;;4972962;28;20448;-63
2022/12/19 02:58:16;;;;;;;9.87;9.37;;;19.30;42.70;;;;;;4975694;28;20451;-61
2022/12/19 03:00:54;;;;;;;11.33;10.73;;;19.30;42.70;;;;;;4992104;28;20808;-62
2022/12/19 03:03:27;;;;;;;10.70;10.10;;;19.30;42.70;;;;;;4976322;28;20440;-62
2022/12/19 03:06:04;;;;;;;11.40;10.80;;;19.30;42.70;;;;;;4973244;28;20440;-61
2022/12/19 03:08:38;;;;;;;11.37;10.77;;;19.30;42.70;;;;;;4992230;28;20446;-61
2022/12/19 03:11:08;;;;;;;11.00;10.47;;;19.30;43.30;;;;;;4991976;28;20878;-61
2022/12/19 03:13:38;;;;;;;10.40;9.90;;;19.20;42.60;;;;;;4992034;28;20482;-63
2022/12/19 03:16:08;;;;;;;10.10;9.60;;;19.20;42.60;;;;;;4992002;28;20447;-62
2022/12/19 03:18:37;;;;;;;11.27;10.77;;;19.20;42.60;;;;;;4992272;28;20969;-62
2022/12/19 03:21:11;;;;;;;10.40;9.87;;;19.20;42.70;;;;;;4991832;28;20473;-63
2022/12/19 03:23:38;;;;;;;11.93;11.30;;;19.20;42.70;;;;;;4992071;28;20454;-62
2022/12/19 03:26:10;;;;;;;10.37;9.77;;;19.20;42.60;;;;;;4991510;28;20898;-61
2022/12/19 03:28:42;;;;;;;11.20;10.60;;;19.20;42.70;;;;;;4991955;28;20813;-62
2022/12/19 03:31:10;;;;;;;11.73;11.10;;;19.20;42.70;;;;;;4991661;28;20569;-61
2022/12/19 03:33:40;;;;;;;11.03;10.43;;;19.20;42.70;;;;;;4991845;28;20478;-62
2022/12/19 03:36:12;;;;;;;10.50;10.00;;;19.20;42.60;;;;;;4991687;28;20450;-62
2022/12/19 03:38:43;;;;;;;10.30;9.80;;;19.20;42.70;;;;;;4992144;28;20453;-62
2022/12/19 03:41:12;;;;;;;11.37;10.77;;;19.20;42.70;;;;;;4991756;28;20469;-62
2022/12/19 03:43:40;;;;;;;10.53;10.03;;;19.20;42.70;;;;;;4991974;28;20829;-62
2022/12/19 03:46:15;;;;;;;10.60;10.10;;;19.20;42.80;;;;;;4991800;28;20443;-60
2022/12/19 03:48:46;;;;;;;11.30;10.80;;;19.20;42.80;;;;;;4991708;28;20454;-62
2022/12/19 03:51:21;;;;;;;11.00;10.57;;;19.20;42.80;;;;;;4991646;28;21031;-60
2022/12/19 03:53:58;;;;;;;11.13;10.43;;;19.20;42.80;;;;;;4991641;28;20857;-63
2022/12/19 03:56:31;;;;;;;9.90;9.40;;;19.20;42.80;;;;;;4991822;28;20453;-61
2022/12/19 03:59:04;;;;;;;9.93;9.43;;;19.20;43.30;;;;;;4991388;28;20447;-63
2022/12/19 04:01:34;;;;;;;11.43;10.83;;;19.10;42.80;;;;;;4990523;28;20993;-63
2022/12/19 04:04:03;;;;;;;10.53;10.03;;;19.20;42.80;;;;;;4973716;28;20818;-62
2022/12/19 04:06:34;;;;;;;10.10;9.57;;;19.10;42.80;;;;;;4975769;28;20479;-62
2022/12/19 04:09:02;;;;;;;10.00;9.60;;;19.20;42.90;;;;;;4975681;28;20923;-62
2022/12/19 04:11:35;;;;;;;11.57;11.07;;;19.10;42.70;;;;;;4982465;28;20557;-63
2022/12/19 04:14:06;;;;;;;9.97;9.57;;;19.10;42.80;;;;;;4994937;28;20540;-62
2022/12/19 04:16:42;;;;;;;10.00;9.60;;;19.10;42.70;;;;;;4995105;28;20461;-62
2022/12/19 04:19:17;;;;;;;11.03;10.43;;;19.10;42.70;;;;;;4994864;28;20449;-63
2022/12/19 04:21:51;;;;;;;11.37;10.70;;;19.10;42.70;;;;;;4994871;28;20473;-62
2022/12/19 04:24:22;;;;;;;11.87;11.27;;;19.10;42.70;;;;;;4994717;28;20451;-63
2022/12/19 04:26:52;;;;;;;11.30;10.70;;;19.10;42.80;;;;;;4994887;28;20458;-62
2022/12/19 04:29:19;;;;;;;11.60;10.90;;;19.20;42.90;;;;;;4994695;28;20466;-63
2022/12/19 04:31:47;;;;;;;9.97;9.50;;;19.20;42.90;;;;;;4994258;28;20473;-63
2022/12/19 04:34:20;;;;;;;9.87;9.47;;;19.20;42.80;;;;;;4994530;28;20475;-63
2022/12/19 04:36:47;;;;;;;11.53;10.93;;;19.20;42.90;;;;;;4994692;28;20447;-63
2022/12/19 04:39:14;;;;;;;10.70;10.20;;;19.20;42.90;;;;;;4994617;28;20442;-63
2022/12/19 04:41:41;;;;;;;10.30;9.80;;;19.20;42.90;;;;;;4994271;28;20462;-63
2022/12/19 04:44:08;;;;;;;10.70;10.23;;;19.20;42.80;;;;;;4994563;28;20522;-63
2022/12/19 04:46:35;;;;;;;11.03;10.53;;;19.20;42.80;;;;;;4994433;28;20542;-64
2022/12/19 04:49:01;;;;;;;11.70;11.00;;;19.20;42.90;;;;;;4994472;28;20776;-62
2022/12/19 04:51:30;;;;;;;10.83;10.33;;;19.20;42.90;;;;;;4994296;28;20482;-61
2022/12/19 04:53:57;;;;;;;10.67;10.07;;;19.20;42.90;;;;;;4994571;28;20520;-64
2022/12/19 04:56:24;;;;;;;10.27;9.83;;;19.20;42.90;;;;;;4996800;28;20458;-62
2022/12/19 04:58:57;;;;;;;10.10;9.60;;;19.20;42.90;;;;;;4994719;28;20526;-64
2022/12/19 05:01:24;;;;;;;10.53;9.93;;;19.20;42.90;;;;;;4994145;28;20483;-63
2022/12/19 05:03:51;;;;;;;10.33;9.77;;;19.20;42.90;;;;;;4974967;28;20995;-63
2022/12/19 05:06:19;;;;;;;9.80;9.40;;;19.10;42.80;;;;;;4981353;28;20450;-63
2022/12/19 05:08:47;;;;;;;9.70;9.30;;;19.10;42.80;;;;;;4994022;28;20453;-61
2022/12/19 05:11:15;;;;;;;9.80;9.33;;;19.10;42.80;;;;;;4994025;28;20467;-64
2022/12/19 05:13:42;;;;;;;9.90;9.50;;;19.10;42.80;;;;;;4994020;28;20512;-61
2022/12/19 05:16:11;;;;;;;9.70;9.30;;;19.10;42.80;;;;;;4992666;28;20458;-63
2022/12/19 05:18:38;;;;;;;10.00;9.50;;;19.10;42.90;;;;;;4993213;28;20489;-63
2022/12/19 05:21:06;;;;;;;9.57;9.17;;;19.10;42.90;;;;;;4993557;28;20990;-63
2022/12/19 05:23:33;;;;;;;9.90;9.40;;;19.10;42.90;;;;;;4993778;28;20439;-63
2022/12/19 05:26:03;;;;;;;11.00;10.40;;;19.10;42.90;;;;;;4993458;28;20451;-63
2022/12/19 05:28:31;;;;;;;9.63;9.23;;;19.10;42.90;;;;;;4993609;28;20451;-62
2022/12/19 05:31:03;;;;;;;10.10;9.60;;;19.10;42.90;;;;;;4993400;28;20834;-62
2022/12/19 05:33:30;;;;;;;10.07;9.67;;;19.10;42.90;;;;;;4993380;28;20486;-62
2022/12/19 05:35:57;;;;;;;10.90;10.40;;;19.10;42.90;;;;;;4993673;28;20526;-61
2022/12/19 05:38:24;;;;;;;11.40;10.80;;;19.10;42.90;;;;;;4993524;28;20892;-62
2022/12/19 05:40:51;;;;;;;9.73;9.33;;;19.10;42.90;;;;;;4993071;28;20557;-62
2022/12/19 05:43:19;;;;;;;9.67;9.27;;;19.10;42.90;;;;;;4993228;28;20874;-64
2022/12/19 05:45:46;;;;;;;9.90;9.40;;;19.10;42.90;;;;;;4993398;28;20642;-64
2022/12/19 05:48:13;;;;;;;9.77;9.37;;;19.10;42.90;;;;;;4993204;28;20545;-64
2022/12/19 05:50:40;;;;;;;9.67;9.27;;;19.10;42.90;;;;;;4993084;28;20475;-63
2022/12/19 05:53:07;;;;;;;9.70;9.30;;;19.10;42.90;;;;;;4993312;28;20562;-63
2022/12/19 05:55:34;;;;;;;10.20;9.80;;;19.20;43.00;;;;;;4992953;28;21041;-62
2022/12/19 05:58:00;;;;;;;10.77;10.27;;;19.20;43.00;;;;;;4993179;28;20538;-63
2022/12/19 06:00:29;;;;;;;10.20;9.80;;;19.20;43.00;;;;;;4992417;28;20897;-62
2022/12/19 06:02:56;;;;;;;9.83;9.43;;;19.20;43.00;;;;;;4992991;28;20431;-62
2022/12/19 06:05:23;;;;;;;9.90;9.50;;;19.20;43.00;;;;;;4993072;28;20545;-63
2022/12/19 06:07:49;;;;;;;9.80;9.40;;;19.20;43.00;;;;;;4992957;28;20541;-63
2022/12/19 06:10:16;;;;;;;11.00;10.50;;;19.20;43.00;;;;;;4991190;28;20538;-63
2022/12/19 06:12:43;;;;;;;11.27;10.73;;;19.20;43.00;;;;;;4992445;28;20447;-63
2022/12/19 06:15:11;;;;;;;10.70;10.20;;;19.20;43.10;;;;;;4992776;28;20501;-64
2022/12/19 06:17:39;;;;;;;11.20;10.60;;;19.10;43.00;;;;;;4992803;28;20455;-63
2022/12/19 06:20:07;;;;;;;10.33;9.83;;;19.20;43.20;;;;;;4992600;28;20449;-62
2022/12/19 06:22:34;;;;;;;9.80;9.40;;;19.20;43.30;;;;;;4992156;28;20548;-63
2022/12/19 06:25:01;;;;;;;9.60;9.20;;;19.20;43.10;;;;;;4992696;28;20482;-61
2022/12/19 06:27:28;;;;;;;9.73;9.33;;;19.30;43.00;;;;;;4992260;28;20454;-63
2022/12/19 06:29:55;;;;;;;10.40;9.90;;;19.30;42.90;;;;;;4992409;28;20446;-63
2022/12/19 06:32:22;;;;;;;9.80;9.30;;;19.30;42.90;;;;;;4992554;28;20881;-63
2022/12/19 06:34:50;;;;;;;10.50;10.00;;;19.30;42.90;;;;;;4992165;28;20489;-62
2022/12/19 06:37:17;;;;;;;10.43;10.03;;;19.40;42.90;;;;;;4992581;28;20483;-61
2022/12/19 06:39:44;;;;;;;11.10;10.50;;;19.40;42.90;;;;;;4992234;28;20886;-62
2022/12/19 06:42:21;;;;;;;10.53;10.03;;;19.40;42.90;;;;;;4992226;28;20470;-62
2022/12/19 06:44:49;;;;;;;9.33;8.93;;;19.40;42.90;;;;;;4992333;28;20462;-63
2022/12/19 06:47:16;;;;;;;10.40;10.00;;;19.40;42.90;;;;;;4992312;28;20451;-64
2022/12/19 06:49:43;;;;;;;10.60;10.20;;;19.40;42.90;;;;;;4992255;28;20509;-65
2022/12/19 06:52:11;;;;;;;10.27;9.73;;;19.40;43.00;;;;;;4992075;28;20474;-62
2022/12/19 06:54:38;;;;;;;9.77;9.27;;;19.40;43.10;;;;;;4992120;28;21061;-63
2022/12/19 06:57:05;;;;;;;11.70;11.10;;;19.50;43.40;;;;;;4992296;28;20451;-64
2022/12/19 06:59:32;;;;;;;13.33;11.67;;;19.50;44.00;;;;;;4991976;28;20826;-63
2022/12/19 07:02:03;;;;;;;12.13;11.23;;;19.60;44.80;;;;;;4991716;28;20465;-62
2022/12/19 07:04:34;;;;;;;12.23;11.40;;;19.60;45.70;;;;;;4992226;28;20439;-60
2022/12/19 07:07:01;;;;;;;14.33;13.03;;;19.60;46.40;;;;;;4992247;28;20479;-64
2022/12/19 07:09:30;;;;;;;14.53;13.07;;;19.60;47.60;;;;;;4992035;28;20461;-63
2022/12/19 07:11:57;;;;;;;14.33;13.13;;;19.60;48.90;;;;;;4991791;28;20831;-63
2022/12/19 07:14:24;;;;;;;14.23;12.73;;;19.60;49.40;;;;;;4991931;28;20545;-63
2022/12/19 07:16:52;;;;;;;13.53;12.37;;;19.60;49.70;;;;;;4992162;28;20533;-59
2022/12/19 07:19:20;;;;;;;12.97;11.70;;;19.70;50.60;;;;;;4991492;28;20457;-60
2022/12/19 07:21:48;;;;;;;13.60;12.20;;;19.70;50.20;;;;;;4991978;28;20471;-60
2022/12/19 07:24:15;;;;;;;15.00;11.20;;;19.70;50.20;;;;;;4991965;28;20447;-60
2022/12/19 07:26:44;;;;;;;12.40;11.20;;;19.70;49.80;;;;;;4992033;28;20534;-59
2022/12/19 07:29:12;;;;;;;13.73;12.50;;;19.70;49.30;;;;;;4991695;28;20447;-59
2022/12/19 07:31:38;;;;;;;15.60;11.33;;;19.70;48.80;;;;;;4992023;28;20981;-59
2022/12/19 07:34:05;;;;;;;14.43;13.07;;;19.70;48.90;;;;;;4991872;28;20493;-60
2022/12/19 07:36:32;;;;;;;13.23;12.10;;;19.70;48.00;;;;;;4991889;28;20531;-57
2022/12/19 07:38:59;;;;;;;13.87;12.10;;;19.70;47.70;;;;;;4993412;28;20516;-56
2022/12/19 07:41:26;;;;;;;16.00;13.50;;;19.70;47.30;;;;;;4995578;28;20561;-58
2022/12/19 07:43:54;;;;;;;12.20;11.00;;;19.70;47.10;;;;;;4995869;28;20446;-56
2022/12/19 07:46:21;;;;;;;12.83;11.50;;;19.70;46.80;;;;;;4995808;28;20450;-60
2022/12/19 07:48:49;;;;;;;11.23;10.33;;;19.70;46.60;;;;;;4995509;28;20829;-56
2022/12/19 07:51:16;;;;;;;11.17;10.23;;;19.70;46.40;;;;;;4996134;28;20514;-58
2022/12/19 07:53:43;;;;;;;11.70;10.80;;;19.80;46.80;;;;;;4995943;28;20576;-58
2022/12/19 07:56:09;;;;;;;11.60;10.80;;;19.80;46.10;;;;;;4996496;28;20546;-61
2022/12/19 07:58:36;;;;;;;11.00;10.03;;;19.80;45.90;;;;;;4996032;28;20818;-59
2022/12/19 08:01:05;;;;;;;12.03;11.10;;;19.80;45.80;;;;;;4995448;28;20553;-58
2022/12/19 08:03:32;;;;;;;9.87;9.37;;;19.80;45.70;;;;;;4995585;28;20434;-58
2022/12/19 08:06:03;;;;;;;11.23;10.33;;;19.80;45.60;;;;;;4995758;28;20861;-57
2022/12/19 08:08:30;;;;;;;12.63;11.77;;;19.80;45.50;;;;;;4995632;28;20446;-57
2022/12/19 08:11:05;;;;;;;10.90;10.30;;;19.80;45.40;;;;;;4995168;28;20475;-58
2022/12/19 08:13:32;;;;;;;11.70;10.80;;;19.80;45.20;;;;;;4995567;28;20482;-60
2022/12/19 08:16:00;;;;;;;11.13;10.40;;;19.90;45.10;;;;;;4995515;28;20530;-59
2022/12/19 08:18:28;;;;;;;11.47;10.77;;;19.90;45.00;;;;;;4995479;28;20478;-59
2022/12/19 08:20:55;;;;;;;10.77;10.17;;;19.90;44.90;;;;;;4995507;28;20542;-58
2022/12/19 08:23:22;;;;;;;11.13;10.43;;;19.90;44.80;;;;;;4995509;28;20792;-60
2022/12/19 08:25:49;;;;;;;10.73;9.83;;;19.90;44.70;;;;;;4995404;28;20542;-59
2022/12/19 08:28:15;;;;;;;10.40;9.70;;;20.00;44.80;;;;;;4995300;28;20871;-59
2022/12/19 08:30:42;;;;;;;11.97;10.00;;;19.90;44.60;;;;;;4995121;28;20999;-58
2022/12/19 08:33:09;;;;;;;10.77;9.97;;;20.00;44.60;;;;;;4995344;28;20460;-60
2022/12/19 08:35:37;;;;;;;14.13;12.80;;;20.00;44.50;;;;;;4995103;28;20545;-59
2022/12/19 08:38:05;;;;;;;9.90;9.40;;;20.00;44.50;;;;;;4995065;28;21022;-58
2022/12/19 08:40:32;;;;;;;10.67;10.07;;;20.00;44.30;;;;;;4994522;28;20566;-58
2022/12/19 08:42:58;;;;;;;10.70;10.20;;;20.00;44.30;;;;;;4995173;28;20447;-59
2022/12/19 08:45:25;;;;;;;11.30;10.80;;;20.00;44.20;;;;;;4994823;28;20882;-60
2022/12/19 08:47:52;;;;;;;11.30;10.57;;;19.90;44.10;;;;;;4994795;28;20453;-58
2022/12/19 08:50:19;;;;;;;11.07;10.17;;;20.00;44.10;;;;;;4994006;28;20457;-58
2022/12/19 08:52:47;;;;;;;10.80;10.30;;;20.00;44.00;;;;;;4994955;28;20533;-56
2022/12/19 08:55:14;;;;;;;12.10;11.30;;;19.90;43.90;;;;;;4994583;28;21083;-59
2022/12/19 08:57:41;;;;;;;11.43;10.67;;;19.90;43.90;;;;;;4994734;28;20451;-59
2022/12/19 09:00:09;;;;;;;10.53;10.03;;;19.90;43.80;;;;;;4994217;28;20537;-60
2022/12/19 09:02:36;;;;;;;10.60;10.00;;;19.90;43.80;;;;;;4994543;28;20537;-59
2022/12/19 09:05:02;;;;;;;10.23;9.80;;;19.90;43.80;;;;;;4994778;28;20870;-55
2022/12/19 09:07:29;;;;;;;11.37;10.70;;;19.90;43.70;;;;;;4994329;28;20455;-60
2022/12/19 09:09:57;;;;;;;10.57;10.00;;;19.90;43.70;;;;;;4994898;28;20923;-59
2022/12/19 09:12:24;;;;;;;9.93;9.33;;;19.90;43.60;;;;;;4994454;28;20473;-59
2022/12/19 09:14:51;;;;;;;10.07;9.57;;;19.90;43.70;;;;;;4994209;28;20585;-58
2022/12/19 09:17:18;;;;;;;10.57;9.83;;;19.90;43.60;;;;;;4994492;28;20451;-60
2022/12/19 09:19:45;;;;;;;10.00;9.60;;;19.90;43.60;;;;;;4994291;28;20878;-60
2022/12/19 09:22:11;;;;;;;10.57;10.00;;;19.90;43.60;;;;;;4994578;28;20557;-59
2022/12/19 09:24:39;;;;;;;10.20;9.80;;;19.90;43.60;;;;;;4994514;28;20938;-60
2022/12/19 09:27:07;;;;;;;11.40;10.80;;;19.90;43.50;;;;;;4994558;28;20451;-61
2022/12/19 09:29:34;;;;;;;10.43;9.90;;;19.90;43.50;;;;;;4993919;28;20451;-57
2022/12/19 09:32:01;;;;;;;10.13;9.60;;;19.90;43.50;;;;;;4994103;28;20504;-59
2022/12/19 09:34:28;;;;;;;10.37;9.97;;;20.00;43.50;;;;;;4993995;28;20849;-56
2022/12/19 09:36:55;;;;;;;10.93;10.40;;;20.00;43.50;;;;;;4993998;28;20451;-59
2022/12/19 09:39:22;;;;;;;10.50;10.03;;;20.00;43.40;;;;;;4993821;28;20541;-57
2022/12/19 09:42:30;;;;;;;10.93;10.23;;;20.00;43.40;;;;;;4993586;28;20914;-58
2022/12/19 09:45:10;;;;;;;10.27;9.77;;;20.10;43.40;;;;;;4993818;28;21020;-57
2022/12/19 09:47:41;;;;;;;11.10;10.33;;;20.10;43.40;;;;;;4993978;28;20546;-57
2022/12/19 09:50:23;;;;;;;10.17;9.77;;;20.10;43.30;;;;;;4993725;28;20453;-57
2022/12/19 09:52:57;;;;;;;10.07;9.67;;;20.10;43.80;;;;;;4993830;28;20446;-61
2022/12/19 09:55:28;;;;;;;10.80;10.30;;;20.10;43.30;;;;;;4993604;28;20492;-59
2022/12/19 09:58:00;;;;;;;11.13;10.53;;;20.10;43.20;;;;;;4993832;28;20442;-58
2022/12/19 10:00:34;;;;;;;11.00;10.40;;;20.10;43.50;;;;;;4993304;28;20952;-59
2022/12/19 10:03:08;;;;;;;11.90;11.40;;;20.00;43.10;;;;;;4993380;28;20447;-58
2022/12/19 10:05:42;;;;;;;11.23;10.77;;;20.10;43.10;;;;;;4993647;28;20493;-59
2022/12/19 10:08:17;;;;;;;11.27;10.67;;;20.10;43.10;;;;;;4993350;28;20453;-59
2022/12/19 10:10:58;;;;;;;11.23;10.80;;;20.00;43.10;;;;;;4993115;28;21032;-61
2022/12/19 10:13:39;;;;;;;10.43;10.13;;;20.00;43.10;;;;;;4993665;28;20447;-60
2022/12/19 10:16:12;;;;;;;11.53;10.93;;;20.10;43.10;;;;;;4993232;28;20534;-60
2022/12/19 10:18:50;;;;;;;10.73;10.33;;;20.10;43.00;;;;;;4993029;28;20455;-59
2022/12/19 10:21:27;;;;;;;11.10;10.70;;;20.10;43.00;;;;;;4993161;28;20470;-59
2022/12/19 10:24:16;;;;;;;11.30;10.60;;;20.10;43.50;;;;;;4993925;28;20942;-58
2022/12/19 10:26:50;;;;;;;12.10;11.60;;;20.00;42.90;;;;;;4993177;28;20534;-58
2022/12/19 10:29:38;;;;;;;11.43;11.03;;;20.00;42.90;;;;;;4993542;28;20456;-59
2022/12/19 10:32:12;;;;;;;10.90;10.50;;;20.10;43.00;;;;;;4993079;28;20484;-60
2022/12/19 10:34:42;;;;;;;11.93;11.33;;;20.00;42.90;;;;;;4993643;28;20479;-57
2022/12/19 10:37:15;;;;;;;10.03;9.63;;;20.00;42.90;;;;;;4993133;28;20482;-58
2022/12/19 10:39:51;;;;;;;11.13;10.67;;;20.00;42.90;;;;;;4993139;28;20483;-59
2022/12/19 10:42:30;;;;;;;10.10;9.70;;;20.10;42.90;;;;;;4993021;28;20472;-58
2022/12/19 10:45:01;;;;;;;10.07;9.67;;;20.10;42.90;;;;;;4992599;28;20446;-58
2022/12/19 10:47:28;;;;;;;9.93;9.63;;;20.10;42.90;;;;;;4993126;28;21071;-59
2022/12/19 10:49:55;;;;;;;10.00;9.60;;;20.10;42.90;;;;;;4992606;28;20451;-59
2022/12/19 10:52:50;;;;;;;10.40;10.00;;;20.10;42.90;;;;;;4992616;28;20561;-57
2022/12/19 10:55:32;;;;;;;10.80;10.40;;;20.10;42.90;;;;;;4992649;28;20515;-59
2022/12/19 10:58:01;;;;;;;10.07;9.57;;;20.10;42.90;;;;;;4992561;28;20455;-60
2022/12/19 11:00:29;;;;;;;10.50;10.07;;;20.10;42.90;;;;;;4992453;28;21012;-59
2022/12/19 11:03:11;;;;;;;11.20;10.70;;;20.10;42.90;;;;;;4992979;28;20543;-59
2022/12/19 11:05:43;;;;;;;10.10;9.70;;;20.10;42.80;;;;;;4992996;28;21005;-57
2022/12/19 11:08:16;;;;;;;10.60;10.10;;;20.20;42.80;;;;;;4994010;28;20453;-64
2022/12/19 11:10:46;;;;;;;9.97;9.67;;;20.10;42.80;;;;;;4992736;28;20988;-57
2022/12/19 11:13:19;;;;;;;10.27;9.93;;;20.10;42.70;;;;;;4995068;28;20494;-58
2022/12/19 11:15:49;;;;;;;10.00;9.63;;;20.10;42.70;;;;;;4996928;28;20489;-59
2022/12/19 11:18:16;;;;;;;9.63;9.30;;;20.10;42.80;;;;;;4996578;28;20446;-59
2022/12/19 11:20:54;;;;;;;9.87;9.47;;;20.10;42.70;;;;;;4996287;28;20467;-59
2022/12/19 11:23:24;;;;;;;10.33;9.83;;;20.10;42.70;;;;;;4996620;28;20457;-59
2022/12/19 11:25:56;;;;;;;9.70;9.40;;;20.10;42.70;;;;;;4996315;28;20442;-57
2022/12/19 11:28:27;;;;;;;10.43;10.00;;;20.10;42.70;;;;;;4996161;28;20934;-59
2022/12/19 11:31:10;;;;;;;10.63;10.17;;;20.10;42.70;;;;;;4995785;28;20467;-58
2022/12/19 11:33:37;;;;;;;9.20;8.90;;;20.10;42.70;;;;;;4996152;28;20457;-60
2022/12/19 11:36:06;;;;;;;10.37;9.80;;;20.10;42.60;;;;;;4996109;28;20479;-58
2022/12/19 11:38:38;;;;;;;9.73;9.43;;;20.10;42.60;;;;;;4996000;28;20453;-59
2022/12/19 11:41:13;;;;;;;9.93;9.53;;;20.10;42.60;;;;;;4995702;28;20471;-59
2022/12/19 11:43:47;;;;;;;9.00;8.70;;;20.10;42.60;;;;;;4996067;28;20532;-60
2022/12/19 11:46:33;;;;;;;9.70;9.30;;;20.10;42.60;;;;;;4995966;28;20442;-59
2022/12/19 11:49:10;;;;;;;9.77;9.37;;;20.10;42.60;;;;;;4995861;28;20453;-60
2022/12/19 11:51:43;;;;;;;9.20;8.90;;;20.10;42.60;;;;;;4995796;28;20473;-58
2022/12/19 11:54:16;;;;;;;9.40;9.10;;;20.10;42.60;;;;;;4995721;28;20826;-59
2022/12/19 11:56:43;;;;;;;9.40;9.10;;;20.10;42.60;;;;;;4995608;28;20445;-58
2022/12/19 11:59:17;;;;;;;9.83;9.43;;;20.10;42.60;;;;;;4995834;28;20525;-59
2022/12/19 12:02:17;;;;;;;10.13;9.77;;;20.10;42.60;;;;;;4995229;28;20977;-61
2022/12/19 12:05:22;;;;;;;10.13;9.77;;;20.10;42.60;;;;;;4979233;28;20443;-60
2022/12/19 12:07:57;;;;;;;9.67;9.37;;;20.10;42.60;;;;;;4985184;28;21005;-59
2022/12/19 12:10:24;;;;;;;9.77;9.30;;;20.20;42.70;;;;;;4995061;28;20541;-59
2022/12/19 12:13:05;;;;;;;10.00;9.60;;;20.20;42.70;;;;;;4995379;28;20434;-58
2022/12/19 12:15:45;;;;;;;9.97;9.57;;;20.20;42.70;;;;;;4995338;28;20486;-60
2022/12/19 12:18:25;;;;;;;9.30;9.00;;;20.30;42.70;;;;;;4995251;28;20542;-59
2022/12/19 12:20:58;;;;;;;10.00;9.60;;;20.30;42.70;;;;;;4995177;28;20834;-59
2022/12/19 12:23:29;;;;;;;9.60;9.30;;;20.30;42.70;;;;;;4995474;28;20450;-58
2022/12/19 12:26:05;;;;;;;9.50;9.17;;;20.30;42.60;;;;;;4994763;28;20533;-61
2022/12/19 12:28:47;;;;;;;9.37;8.97;;;20.30;42.60;;;;;;4995296;28;20486;-58
2022/12/19 12:31:31;;;;;;;9.30;9.00;;;20.30;42.60;;;;;;4995235;28;20505;-59
2022/12/19 12:34:13;;;;;;;9.33;8.93;;;20.30;42.60;;;;;;4995002;28;20542;-57
2022/12/19 12:36:47;;;;;;;9.90;9.50;;;20.30;42.60;;;;;;4995087;28;20573;-59
2022/12/19 12:39:20;;;;;;;9.87;9.53;;;20.20;42.50;;;;;;4994771;28;20458;-62
2022/12/19 12:42:03;;;;;;;10.73;10.23;;;20.20;42.50;;;;;;4994876;28;20471;-60
2022/12/19 12:44:34;;;;;;;9.43;9.13;;;20.20;42.50;;;;;;4994744;28;20541;-59
2022/12/19 12:47:06;;;;;;;9.60;9.30;;;20.20;42.50;;;;;;4994769;28;20541;-58
2022/12/19 12:49:40;;;;;;;9.97;9.60;;;20.20;43.00;;;;;;4994420;28;20469;-58
2022/12/19 12:52:10;;;;;;;9.90;9.50;;;20.30;42.50;;;;;;4994445;28;20482;-58